Time;durP1;ratioP1;P1;durP2;ratioP2;P2;SDS_P1;SDS_P2;PMS_P1;PMS_P2;Temp;Humidity;BMP_temperature;BMP_pressure;BME280_temperature;BME280_humidity;BME280_pressure;Samples;Min_cycle;Max_cycle;Signal;HPM_P1;HPM_P2
2022/06/24 00:01:24;;;;;;;2.77;1.50;;;18.60;99.90;;;;;;4864422;29;20517;-73
2022/06/24 00:03:52;;;;;;;2.03;1.80;;;18.60;99.90;;;;;;4864457;29;21017;-73
2022/06/24 00:06:19;;;;;;;5.13;1.77;;;18.60;99.90;;;;;;4864908;29;20445;-73
2022/06/24 00:08:54;;;;;;;4.23;1.93;;;18.60;99.90;;;;;;4864962;29;20436;-72
2022/06/24 00:11:27;;;;;;;6.13;2.33;;;18.60;99.90;;;;;;4864720;29;20476;-72
2022/06/24 00:14:06;;;;;;;3.43;2.03;;;18.70;99.90;;;;;;4864871;29;20484;-73
2022/06/24 00:16:32;;;;;;;4.23;1.70;;;18.60;99.90;;;;;;4864839;29;20442;-72
2022/06/24 00:19:09;;;;;;;3.03;1.70;;;18.60;99.90;;;;;;4865176;29;20471;-72
2022/06/24 00:21:36;;;;;;;2.30;1.67;;;18.50;99.90;;;;;;4865555;29;20452;-72
2022/06/24 00:24:04;;;;;;;5.23;1.80;;;18.50;99.90;;;;;;4870740;29;20439;-72
2022/06/24 00:26:43;;;;;;;7.63;2.73;;;18.50;99.90;;;;;;4881427;29;20425;-72
2022/06/24 00:29:09;;;;;;;5.17;1.80;;;18.50;99.90;;;;;;4884203;29;20412;-72
2022/06/24 00:31:36;;;;;;;2.53;1.60;;;18.40;99.90;;;;;;4876550;29;20851;-71
2022/06/24 00:34:23;;;;;;;2.90;1.97;;;18.40;99.90;;;;;;4865148;29;20432;-71
2022/06/24 00:36:50;;;;;;;5.80;2.03;;;18.30;99.90;;;;;;4864488;29;20795;-74
2022/06/24 00:39:17;;;;;;;5.10;1.93;;;18.40;99.90;;;;;;4866172;29;20842;-72
2022/06/24 00:41:51;;;;;;;2.97;1.53;;;18.50;99.90;;;;;;4865380;29;20486;-72
2022/06/24 00:44:20;;;;;;;10.63;1.87;;;18.40;99.90;;;;;;4865681;29;20473;-73
2022/06/24 00:46:48;;;;;;;2.73;1.60;;;18.40;99.90;;;;;;4868512;29;20812;-73
2022/06/24 00:49:24;;;;;;;2.20;1.63;;;18.40;99.90;;;;;;4867426;29;20543;-73
2022/06/24 00:51:51;;;;;;;4.10;1.50;;;18.30;99.90;;;;;;4865237;29;20493;-73
2022/06/24 00:54:19;;;;;;;4.10;1.70;;;18.30;99.90;;;;;;4865783;29;20446;-73
2022/06/24 00:56:47;;;;;;;2.97;1.57;;;18.30;99.90;;;;;;4866591;29;20515;-73
2022/06/24 00:59:15;;;;;;;3.30;2.00;;;18.30;99.90;;;;;;4864419;29;20455;-73
2022/06/24 01:01:44;;;;;;;2.80;2.00;;;18.30;99.90;;;;;;4863931;29;20643;-74
2022/06/24 01:04:12;;;;;;;3.13;2.13;;;18.30;99.90;;;;;;4865517;29;20966;-73
2022/06/24 01:06:41;;;;;;;2.40;1.93;;;18.40;99.90;;;;;;4864003;29;20906;-73
2022/06/24 01:09:08;;;;;;;5.97;1.83;;;18.40;99.90;;;;;;4862988;29;21045;-72
2022/06/24 01:11:37;;;;;;;3.70;1.73;;;18.40;99.90;;;;;;4862888;29;20504;-73
2022/06/24 01:14:06;;;;;;;3.70;1.67;;;18.30;99.90;;;;;;4864197;29;20456;-73
2022/06/24 01:16:34;;;;;;;2.70;1.70;;;18.40;99.90;;;;;;4863406;29;20494;-73
2022/06/24 01:19:03;;;;;;;5.27;1.80;;;18.40;99.90;;;;;;4863641;29;20470;-72
2022/06/24 01:21:35;;;;;;;4.43;1.90;;;18.40;99.90;;;;;;4863295;29;20452;-72
2022/06/24 01:24:06;;;;;;;3.53;1.90;;;18.40;99.90;;;;;;4866504;29;20451;-73
2022/06/24 01:26:33;;;;;;;2.70;1.80;;;18.50;99.90;;;;;;4868109;29;20446;-73
2022/06/24 01:29:00;;;;;;;5.90;1.80;;;18.50;99.90;;;;;;4864133;29;20882;-74
2022/06/24 01:31:27;;;;;;;3.97;1.83;;;18.50;99.90;;;;;;4864405;29;20992;-72
2022/06/24 01:33:54;;;;;;;2.87;1.93;;;18.50;99.90;;;;;;4864183;29;20486;-73
2022/06/24 01:36:21;;;;;;;2.77;1.70;;;18.60;99.90;;;;;;4864126;29;20567;-73
2022/06/24 01:38:49;;;;;;;2.77;2.10;;;18.50;99.90;;;;;;4865035;29;20734;-73
2022/06/24 01:41:17;;;;;;;2.90;1.90;;;18.60;99.90;;;;;;4865882;29;20478;-72
2022/06/24 01:43:44;;;;;;;1.80;1.37;;;18.60;99.90;;;;;;4872769;29;20526;-73
2022/06/24 01:46:11;;;;;;;4.60;1.70;;;18.60;99.90;;;;;;4875307;29;20568;-72
2022/06/24 01:48:38;;;;;;;4.47;2.20;;;18.70;99.90;;;;;;4872598;29;20497;-73
2022/06/24 01:51:05;;;;;;;3.03;1.70;;;18.70;99.90;;;;;;4863357;29;20813;-73
2022/06/24 01:53:32;;;;;;;2.70;1.43;;;18.70;99.90;;;;;;4863172;29;20543;-73
2022/06/24 01:56:00;;;;;;;2.40;1.47;;;18.70;99.90;;;;;;4863186;29;20593;-72
2022/06/24 01:58:27;;;;;;;6.00;1.80;;;18.70;99.90;;;;;;4862815;29;20444;-73
2022/06/24 02:00:54;;;;;;;2.60;1.77;;;18.70;99.90;;;;;;4862408;29;20459;-73
2022/06/24 02:03:21;;;;;;;5.87;1.73;;;18.80;99.90;;;;;;4862265;29;20440;-73
2022/06/24 02:05:48;;;;;;;2.83;2.37;;;18.70;99.90;;;;;;4862935;29;20465;-73
2022/06/24 02:08:15;;;;;;;4.40;1.60;;;18.60;99.90;;;;;;4862986;29;20435;-73
2022/06/24 02:13:28;;;;;;;2.67;1.60;;;18.60;99.90;;;;;;4862467;29;20941;-72
2022/06/24 02:15:56;;;;;;;1.90;1.57;;;18.70;99.90;;;;;;4862755;29;20482;-73
2022/06/24 02:18:23;;;;;;;3.53;1.87;;;18.70;99.90;;;;;;4862594;29;20450;-72
2022/06/24 02:20:50;;;;;;;3.13;1.67;;;18.80;99.90;;;;;;4862715;29;20994;-74
2022/06/24 02:23:18;;;;;;;3.03;1.60;;;18.80;99.90;;;;;;4862283;29;20462;-73
2022/06/24 02:25:45;;;;;;;3.27;1.87;;;18.80;99.90;;;;;;4863203;29;20840;-74
2022/06/24 02:28:13;;;;;;;3.43;1.60;;;18.80;99.90;;;;;;4862905;29;20898;-71
2022/06/24 02:30:42;;;;;;;3.40;1.67;;;18.80;99.90;;;;;;4861694;29;20475;-74
2022/06/24 02:33:10;;;;;;;4.60;1.80;;;18.80;99.90;;;;;;4862707;29;20440;-73
2022/06/24 02:35:38;;;;;;;5.07;2.07;;;18.80;99.90;;;;;;4862538;29;21025;-73
2022/06/24 02:38:05;;;;;;;3.93;1.80;;;18.80;99.90;;;;;;4863767;29;20470;-73
2022/06/24 02:40:47;;;;;;;5.13;2.47;;;18.70;99.90;;;;;;4869532;29;20464;-72
2022/06/24 02:43:16;;;;;;;4.00;2.03;;;18.60;99.90;;;;;;4867405;29;20436;-73
2022/06/24 02:45:45;;;;;;;4.37;1.90;;;18.60;99.90;;;;;;4862876;29;20432;-73
2022/06/24 02:48:13;;;;;;;3.07;1.50;;;18.60;99.90;;;;;;4862799;29;20820;-73
2022/06/24 02:50:42;;;;;;;4.00;2.13;;;18.50;99.90;;;;;;4865464;29;20477;-73
2022/06/24 02:53:09;;;;;;;2.13;1.90;;;18.50;99.90;;;;;;4867118;29;20484;-73
2022/06/24 02:55:36;;;;;;;5.47;1.80;;;18.50;99.90;;;;;;4862410;29;21093;-73
2022/06/24 02:58:04;;;;;;;5.00;1.73;;;18.40;99.90;;;;;;4862368;29;20473;-72
2022/06/24 03:00:31;;;;;;;3.10;1.80;;;18.40;99.90;;;;;;4861842;29;20475;-72
2022/06/24 03:02:59;;;;;;;2.57;1.90;;;18.40;99.90;;;;;;4861964;29;20950;-73
2022/06/24 03:05:26;;;;;;;7.20;2.27;;;18.40;99.90;;;;;;4861789;29;20756;-72
2022/06/24 03:07:54;;;;;;;5.07;2.40;;;18.30;99.90;;;;;;4861501;29;20439;-72
2022/06/24 03:10:21;;;;;;;2.53;1.73;;;18.30;99.90;;;;;;4861522;29;20449;-72
2022/06/24 03:12:48;;;;;;;4.40;2.00;;;18.30;99.90;;;;;;4861905;29;20429;-73
2022/06/24 03:15:15;;;;;;;5.23;2.17;;;18.30;99.90;;;;;;4861846;29;20593;-72
2022/06/24 03:17:42;;;;;;;4.33;2.10;;;18.20;99.90;;;;;;4867557;29;20930;-72
2022/06/24 03:20:11;;;;;;;3.30;2.10;;;18.20;99.90;;;;;;4861449;29;20452;-72
2022/06/24 03:22:38;;;;;;;5.67;2.20;;;18.20;99.90;;;;;;4861352;29;20572;-73
2022/06/24 03:25:05;;;;;;;4.03;2.67;;;18.20;99.90;;;;;;4861264;29;20458;-73
2022/06/24 03:27:32;;;;;;;2.93;2.53;;;18.20;99.90;;;;;;4861750;29;20805;-72
2022/06/24 03:29:59;;;;;;;3.83;2.17;;;18.20;99.90;;;;;;4861316;29;20456;-72
2022/06/24 03:32:26;;;;;;;2.80;2.03;;;18.20;99.90;;;;;;4861767;29;20484;-72
2022/06/24 03:34:53;;;;;;;3.47;2.47;;;18.20;99.90;;;;;;4862216;29;20492;-72
2022/06/24 03:37:21;;;;;;;4.10;2.80;;;18.10;99.90;;;;;;4861895;29;20747;-72
2022/06/24 03:39:48;;;;;;;5.17;2.40;;;18.10;99.90;;;;;;4861938;29;20557;-72
2022/06/24 03:42:15;;;;;;;3.43;2.50;;;18.10;99.90;;;;;;4861857;29;20458;-71
2022/06/24 03:44:42;;;;;;;4.37;2.90;;;18.00;99.90;;;;;;4861882;29;20543;-72
2022/06/24 03:47:09;;;;;;;2.77;2.57;;;18.00;99.90;;;;;;4862390;29;20930;-72
2022/06/24 03:49:36;;;;;;;5.93;3.37;;;18.00;99.90;;;;;;4865331;29;20451;-72
2022/06/24 03:52:03;;;;;;;3.83;2.50;;;18.00;99.90;;;;;;4869609;29;20825;-72
2022/06/24 03:54:32;;;;;;;3.23;2.60;;;18.10;99.90;;;;;;4869063;29;20465;-71
2022/06/24 03:56:59;;;;;;;3.53;2.30;;;18.00;99.90;;;;;;4864791;29;20571;-72
2022/06/24 03:59:26;;;;;;;3.13;2.40;;;18.00;99.90;;;;;;4862231;29;20990;-73
2022/06/24 04:01:53;;;;;;;6.90;2.57;;;18.00;99.90;;;;;;4865605;29;20494;-73
2022/06/24 04:04:20;;;;;;;4.07;2.20;;;18.10;99.90;;;;;;4874582;29;20528;-73
2022/06/24 04:06:47;;;;;;;4.77;2.50;;;18.10;99.90;;;;;;4880883;29;20468;-72
2022/06/24 04:09:14;;;;;;;3.70;2.33;;;18.10;99.90;;;;;;4883127;29;20453;-72
2022/06/24 04:11:42;;;;;;;3.80;2.47;;;18.10;99.90;;;;;;4882856;29;20497;-72
2022/06/24 04:14:09;;;;;;;2.90;2.30;;;18.20;99.90;;;;;;4879874;29;20470;-71
2022/06/24 04:16:36;;;;;;;3.30;2.60;;;18.20;99.90;;;;;;4870475;29;20468;-73
2022/06/24 04:19:03;;;;;;;5.97;2.43;;;18.20;99.90;;;;;;4868309;29;20456;-72
2022/06/24 04:21:31;;;;;;;5.23;2.40;;;18.20;99.90;;;;;;4866165;29;20480;-73
2022/06/24 04:23:58;;;;;;;4.63;2.23;;;18.20;99.90;;;;;;4866206;29;20950;-72
2022/06/24 04:26:25;;;;;;;5.13;2.97;;;18.40;99.90;;;;;;4865586;29;20468;-73
2022/06/24 04:28:53;;;;;;;4.30;3.00;;;18.50;99.90;;;;;;4864468;29;20464;-71
2022/06/24 04:31:20;;;;;;;7.87;2.70;;;18.70;99.90;;;;;;4864090;29;20977;-72
2022/06/24 04:33:47;;;;;;;4.63;2.80;;;18.80;99.90;;;;;;4864559;29;20515;-72
2022/06/24 04:36:15;;;;;;;4.40;2.33;;;18.80;99.90;;;;;;4864313;29;20508;-74
2022/06/24 04:38:44;;;;;;;6.80;2.83;;;18.80;99.90;;;;;;4864128;29;20436;-72
2022/06/24 04:41:12;;;;;;;3.80;2.93;;;18.90;99.90;;;;;;4863831;29;20481;-73
2022/06/24 04:43:39;;;;;;;5.53;2.73;;;19.10;99.90;;;;;;4864421;29;20982;-74
2022/06/24 04:46:07;;;;;;;8.17;2.83;;;19.40;99.90;;;;;;4864542;29;20458;-72
2022/06/24 04:48:35;;;;;;;4.30;2.67;;;19.60;99.90;;;;;;4865278;29;20433;-73
2022/06/24 04:51:03;;;;;;;7.27;2.63;;;19.80;99.90;;;;;;4865648;29;20464;-72
2022/06/24 04:53:30;;;;;;;3.03;2.70;;;20.00;99.90;;;;;;4864740;29;20448;-73
2022/06/24 04:55:57;;;;;;;3.83;2.47;;;20.00;99.60;;;;;;4864812;29;20549;-73
2022/06/24 04:58:24;;;;;;;3.90;2.67;;;20.10;99.30;;;;;;4864794;29;20432;-73
2022/06/24 05:00:51;;;;;;;7.40;2.43;;;20.40;98.60;;;;;;4863874;29;20456;-73
2022/06/24 05:03:19;;;;;;;4.43;2.30;;;21.00;96.00;;;;;;4864786;29;20469;-72
2022/06/24 05:05:46;;;;;;;3.77;2.23;;;21.80;90.60;;;;;;4864680;29;20432;-71
2022/06/24 05:08:13;;;;;;;4.70;2.50;;;22.40;79.70;;;;;;4864546;29;20968;-72
2022/06/24 05:10:41;;;;;;;4.40;2.23;;;23.00;74.00;;;;;;4864088;29;20467;-73
2022/06/24 05:13:08;;;;;;;5.47;2.40;;;23.30;70.80;;;;;;4865532;29;20456;-73
2022/06/24 05:15:35;;;;;;;5.97;2.10;;;23.70;67.60;;;;;;4868870;29;20612;-75
2022/06/24 05:18:02;;;;;;;6.60;2.40;;;24.20;62.40;;;;;;4867068;29;20950;-73
2022/06/24 05:20:30;;;;;;;6.00;2.70;;;24.30;61.80;;;;;;4864449;29;20882;-74
2022/06/24 05:22:57;;;;;;;5.10;2.50;;;24.20;60.20;;;;;;4865624;29;20435;-74
2022/06/24 05:25:24;;;;;;;5.67;2.50;;;23.60;63.00;;;;;;4863791;29;20449;-73
2022/06/24 05:27:51;;;;;;;5.90;2.37;;;23.20;65.40;;;;;;4862084;29;20466;-74
2022/06/24 05:30:18;;;;;;;8.70;3.57;;;23.00;67.50;;;;;;4862089;29;20492;-73
2022/06/24 05:32:44;;;;;;;5.80;2.50;;;22.80;68.50;;;;;;4861873;29;20448;-75
2022/06/24 05:35:11;;;;;;;7.77;2.70;;;22.80;70.30;;;;;;4862079;29;20883;-74
2022/06/24 05:37:40;;;;;;;4.57;3.10;;;23.20;68.50;;;;;;4862098;29;20498;-75
2022/06/24 05:40:08;;;;;;;11.40;2.53;;;23.80;64.30;;;;;;4861053;29;20719;-75
2022/06/24 05:42:35;;;;;;;4.83;2.60;;;24.30;61.90;;;;;;4865293;29;20947;-75
2022/06/24 05:45:01;;;;;;;4.90;2.70;;;24.60;59.50;;;;;;4861834;29;20436;-75
2022/06/24 05:47:28;;;;;;;8.77;3.20;;;24.90;58.20;;;;;;4862305;29;20428;-74
2022/06/24 05:49:55;;;;;;;6.27;3.10;;;24.90;58.00;;;;;;4862067;29;20557;-73
2022/06/24 05:55:05;;;;;;;4.77;2.90;;;24.80;58.20;;;;;;4863053;29;20516;-74
2022/06/24 05:57:32;;;;;;;8.90;3.00;;;25.20;56.30;;;;;;4867859;29;20470;-75
2022/06/24 05:59:58;;;;;;;7.80;2.90;;;25.20;55.50;;;;;;4869579;29;20931;-75
2022/06/24 06:02:25;;;;;;;5.30;2.20;;;25.40;55.00;;;;;;4871110;29;20447;-74
2022/06/24 06:04:52;;;;;;;6.20;2.93;;;25.80;54.10;;;;;;4866103;29;20428;-73
2022/06/24 06:07:20;;;;;;;5.53;3.50;;;25.90;52.60;;;;;;4861588;29;20459;-74
2022/06/24 06:09:47;;;;;;;11.17;3.10;;;25.70;52.70;;;;;;4861176;29;20455;-73
2022/06/24 06:12:15;;;;;;;7.77;3.17;;;25.90;53.20;;;;;;4861046;29;20434;-74
2022/06/24 06:14:42;;;;;;;5.40;2.70;;;25.90;52.40;;;;;;4862637;29;20472;-74
2022/06/24 06:17:09;;;;;;;4.90;2.67;;;25.80;51.80;;;;;;4863334;29;20472;-73
2022/06/24 06:19:35;;;;;;;8.37;3.20;;;25.50;53.70;;;;;;4863423;29;20438;-73
2022/06/24 06:22:02;;;;;;;12.20;3.03;;;25.30;53.70;;;;;;4860645;29;20481;-72
2022/06/24 06:24:30;;;;;;;6.47;2.90;;;25.20;54.20;;;;;;4861726;29;20478;-75
2022/06/24 06:26:57;;;;;;;9.60;3.10;;;25.40;53.80;;;;;;4862089;29;20433;-73
2022/06/24 06:29:26;;;;;;;4.60;2.80;;;25.70;52.90;;;;;;4860801;29;20484;-73
2022/06/24 06:31:53;;;;;;;9.30;2.90;;;25.70;52.60;;;;;;4860215;29;20530;-73
2022/06/24 06:34:20;;;;;;;6.20;2.70;;;25.90;51.80;;;;;;4861482;29;20528;-73
2022/06/24 06:36:46;;;;;;;5.53;3.10;;;25.80;51.80;;;;;;4860681;29;20505;-73
2022/06/24 06:39:13;;;;;;;6.30;3.27;;;25.60;53.90;;;;;;4857938;29;20933;-72
2022/06/24 06:41:41;;;;;;;6.80;4.13;;;25.40;53.80;;;;;;4860350;29;20452;-71
2022/06/24 06:44:08;;;;;;;12.20;3.50;;;25.30;53.70;;;;;;4861486;29;20493;-73
2022/06/24 06:46:36;;;;;;;10.50;2.93;;;25.70;53.50;;;;;;4858618;29;20437;-75
2022/06/24 06:49:03;;;;;;;6.87;3.40;;;26.60;50.50;;;;;;4861812;29;20468;-73
2022/06/24 06:51:30;;;;;;;5.57;2.60;;;26.80;48.20;;;;;;4861100;29;20995;-74
2022/06/24 06:53:57;;;;;;;11.70;3.53;;;26.70;47.70;;;;;;4861877;29;20468;-74
2022/06/24 06:59:11;;;;;;;7.70;3.00;;;26.20;49.20;;;;;;4862603;29;20465;-75
2022/06/24 07:01:39;;;;;;;8.50;2.77;;;25.60;51.10;;;;;;4863098;29;20493;-76
2022/06/24 07:04:06;;;;;;;7.50;2.93;;;24.90;53.50;;;;;;4864902;29;20462;-76
2022/06/24 07:06:32;;;;;;;7.27;3.30;;;24.50;56.70;;;;;;4864311;29;20496;-76
2022/06/24 07:08:59;;;;;;;4.83;2.63;;;24.40;56.50;;;;;;4861882;29;20462;-75
2022/06/24 07:11:26;;;;;;;5.93;2.87;;;24.00;56.90;;;;;;4861149;29;20492;-75
2022/06/24 07:13:54;;;;;;;4.20;3.10;;;23.80;58.30;;;;;;4863195;29;20921;-75
2022/06/24 07:16:22;;;;;;;4.47;3.00;;;23.60;60.60;;;;;;4863162;29;20567;-75
2022/06/24 07:18:50;;;;;;;3.17;2.87;;;23.70;58.90;;;;;;4862992;29;20436;-75
2022/06/24 07:21:17;;;;;;;5.87;4.13;;;23.80;57.70;;;;;;4864016;29;20486;-76
2022/06/24 07:23:44;;;;;;;4.33;2.70;;;23.70;57.80;;;;;;4863320;29;20443;-75
2022/06/24 07:26:11;;;;;;;7.47;3.13;;;23.80;57.60;;;;;;4863910;29;20460;-75
2022/06/24 07:28:38;;;;;;;4.57;3.07;;;23.90;57.00;;;;;;4863075;29;20500;-76
2022/06/24 07:31:14;;;;;;;6.10;3.37;;;23.90;56.30;;;;;;4860440;29;20864;-76
2022/06/24 07:33:40;;;;;;;4.87;2.87;;;23.80;56.70;;;;;;4864331;29;21084;-74
2022/06/24 07:36:09;;;;;;;8.70;2.70;;;24.10;56.50;;;;;;4860843;29;20466;-76
2022/06/24 07:38:36;;;;;;;7.50;2.80;;;24.20;56.90;;;;;;4862005;29;20646;-76
2022/06/24 07:41:03;;;;;;;4.30;3.03;;;24.20;56.00;;;;;;4865521;29;20449;-76
2022/06/24 07:43:30;;;;;;;3.77;2.90;;;24.00;57.10;;;;;;4869643;29;20980;-76
2022/06/24 07:45:57;;;;;;;4.97;2.47;;;23.80;57.80;;;;;;4872487;29;20475;-76
2022/06/24 07:48:24;;;;;;;9.00;3.10;;;23.90;58.70;;;;;;4866795;29;20465;-76
2022/06/24 07:50:54;;;;;;;6.07;3.27;;;24.10;56.90;;;;;;4865495;29;20494;-77
2022/06/24 07:53:22;;;;;;;7.73;3.20;;;24.10;55.80;;;;;;4865753;29;20469;-77
2022/06/24 07:58:33;;;;;;;6.57;3.33;;;23.90;54.70;;;;;;4864056;29;20474;-76
2022/06/24 08:01:01;;;;;;;7.53;2.93;;;23.60;57.20;;;;;;4863631;29;20854;-77
2022/06/24 08:03:27;;;;;;;3.30;2.60;;;23.70;57.20;;;;;;4864069;29;20462;-76
2022/06/24 08:05:54;;;;;;;3.93;2.43;;;23.70;57.90;;;;;;4864238;29;20472;-76
2022/06/24 08:08:26;;;;;;;6.60;2.60;;;24.10;56.70;;;;;;4846191;29;20452;-77
2022/06/24 08:10:53;;;;;;;2.50;2.23;;;24.60;53.20;;;;;;4845413;29;20557;-77
2022/06/24 08:13:20;;;;;;;5.43;2.27;;;25.00;51.70;;;;;;4845928;29;20470;-77
2022/06/24 08:15:47;;;;;;;8.70;2.47;;;25.10;50.30;;;;;;4845992;29;20448;-77
2022/06/24 08:18:13;;;;;;;4.20;2.30;;;25.00;50.50;;;;;;4846963;29;20476;-76
2022/06/24 08:20:40;;;;;;;9.77;2.80;;;25.00;50.60;;;;;;4857825;29;20547;-77
2022/06/24 08:23:07;;;;;;;5.87;2.63;;;25.20;50.60;;;;;;4858370;29;20433;-76
2022/06/24 08:25:35;;;;;;;3.00;2.70;;;25.20;49.30;;;;;;4854737;29;20475;-76
2022/06/24 08:28:02;;;;;;;10.73;3.13;;;25.30;49.00;;;;;;4846033;29;20853;-77
2022/06/24 08:30:29;;;;;;;4.03;3.17;;;25.40;47.70;;;;;;4848860;29;20489;-76
2022/06/24 08:32:56;;;;;;;4.97;2.83;;;25.20;47.80;;;;;;4881272;29;20796;-76
2022/06/24 08:35:23;;;;;;;5.87;2.97;;;25.00;48.70;;;;;;4881978;29;20435;-75
2022/06/24 08:37:50;;;;;;;3.20;2.80;;;25.00;49.30;;;;;;4881696;29;21032;-75
2022/06/24 08:40:19;;;;;;;4.50;2.70;;;24.90;48.50;;;;;;4879813;29;20477;-76
2022/06/24 08:42:52;;;;;;;4.60;2.83;;;24.90;49.10;;;;;;4865176;29;20516;-77
2022/06/24 08:45:19;;;;;;;4.73;2.30;;;24.90;49.50;;;;;;4882078;29;20512;-77
2022/06/24 08:47:47;;;;;;;4.93;2.20;;;24.90;48.80;;;;;;4881991;29;20443;-76
2022/06/24 08:50:14;;;;;;;2.33;2.10;;;24.90;47.20;;;;;;4881668;29;20607;-77
2022/06/24 08:52:46;;;;;;;4.70;2.50;;;25.00;47.70;;;;;;4881652;29;20559;-75
2022/06/24 08:55:16;;;;;;;4.90;2.27;;;25.30;46.10;;;;;;4885276;29;20474;-77
2022/06/24 08:57:43;;;;;;;8.50;2.33;;;25.80;46.00;;;;;;4889678;29;20503;-76
2022/06/24 09:00:13;;;;;;;7.40;2.20;;;25.70;44.00;;;;;;4873100;29;20486;-77
2022/06/24 09:02:40;;;;;;;4.30;2.00;;;26.00;44.20;;;;;;4864644;29;20464;-76
2022/06/24 09:05:10;;;;;;;5.00;2.03;;;26.10;44.30;;;;;;4866336;29;20467;-77
2022/06/24 09:07:36;;;;;;;3.50;1.90;;;26.30;44.40;;;;;;4866772;29;20467;-77
2022/06/24 09:10:06;;;;;;;5.00;1.90;;;26.50;43.30;;;;;;4865980;29;20442;-76
2022/06/24 09:12:38;;;;;;;2.30;1.70;;;26.50;43.10;;;;;;4865920;29;20554;-77
2022/06/24 09:15:07;;;;;;;3.93;2.30;;;26.50;43.90;;;;;;4863700;29;20425;-77
2022/06/24 09:17:36;;;;;;;4.77;2.23;;;26.10;44.20;;;;;;4862615;29;20495;-77
2022/06/24 09:20:12;;;;;;;3.80;2.47;;;26.10;44.20;;;;;;4862891;29;20426;-77
2022/06/24 09:22:39;;;;;;;3.17;2.50;;;26.00;44.20;;;;;;4861890;29;20897;-76
2022/06/24 09:25:06;;;;;;;3.40;1.87;;;26.00;44.20;;;;;;4862512;29;20831;-77
2022/06/24 09:27:34;;;;;;;4.93;2.40;;;26.10;43.20;;;;;;4862743;29;20469;-77
2022/06/24 09:30:01;;;;;;;4.00;2.33;;;25.80;44.00;;;;;;4862482;29;20460;-77
2022/06/24 09:32:28;;;;;;;2.90;2.60;;;25.90;43.90;;;;;;4862269;29;20500;-77
2022/06/24 09:35:04;;;;;;;3.47;2.20;;;25.80;42.50;;;;;;4863037;29;20467;-77
2022/06/24 09:37:35;;;;;;;2.30;2.00;;;25.50;43.90;;;;;;4880099;29;20990;-76
2022/06/24 09:40:19;;;;;;;7.00;1.77;;;25.40;43.80;;;;;;4883096;29;20436;-76
2022/06/24 09:42:53;;;;;;;4.63;2.57;;;25.60;43.90;;;;;;4880260;29;20469;-77
2022/06/24 09:45:20;;;;;;;5.67;2.47;;;25.90;43.90;;;;;;4880936;29;20983;-75
2022/06/24 09:47:49;;;;;;;3.13;2.30;;;25.70;43.80;;;;;;4881296;29;20464;-76
2022/06/24 09:50:17;;;;;;;4.40;2.07;;;25.60;42.40;;;;;;4881067;29;20524;-76
2022/06/24 09:52:44;;;;;;;3.17;1.80;;;25.70;41.50;;;;;;4880859;29;20492;-78
2022/06/24 09:55:11;;;;;;;5.10;2.17;;;25.80;40.60;;;;;;4881577;29;20439;-76
2022/06/24 09:57:38;;;;;;;2.60;1.80;;;25.90;41.90;;;;;;4883073;29;20996;-77
2022/06/24 10:02:51;;;;;;;2.23;1.20;;;26.40;38.90;;;;;;4880603;29;20475;-77
2022/06/24 10:05:21;;;;;;;1.80;1.70;;;26.70;36.00;;;;;;4885295;29;20497;-78
2022/06/24 10:07:49;;;;;;;3.47;1.30;;;26.80;33.30;;;;;;4876614;29;20450;-78
2022/06/24 10:10:17;;;;;;;7.33;1.50;;;26.60;33.90;;;;;;4870240;29;20536;-77
2022/06/24 10:12:50;;;;;;;3.37;1.70;;;26.80;34.40;;;;;;4865489;29;20434;-76
2022/06/24 10:15:18;;;;;;;2.87;1.90;;;27.00;34.50;;;;;;4875458;29;20536;-80
2022/06/24 10:17:47;;;;;;;2.70;2.00;;;27.10;34.60;;;;;;4878940;29;20538;-78
2022/06/24 10:20:16;;;;;;;4.60;1.80;;;26.90;34.50;;;;;;4879797;29;20558;-77
2022/06/24 10:22:46;;;;;;;4.20;1.83;;;26.80;34.40;;;;;;4870918;29;20479;-78
2022/06/24 10:25:18;;;;;;;3.87;2.07;;;26.80;35.70;;;;;;4865150;29;20477;-78
2022/06/24 10:28:09;;;;;;;1.57;1.47;;;26.90;35.20;;;;;;4864853;29;20433;-77
2022/06/24 10:30:57;;;;;;;2.43;1.30;;;26.80;34.40;;;;;;4862604;29;21070;-76
2022/06/24 10:33:27;;;;;;;3.40;1.53;;;26.40;34.10;;;;;;4862749;29;20534;-77
2022/06/24 10:35:59;;;;;;;2.00;1.73;;;26.30;35.40;;;;;;4862821;29;20523;-77
2022/06/24 10:38:35;;;;;;;4.53;1.83;;;26.20;36.10;;;;;;4863414;29;20933;-77
2022/06/24 10:41:03;;;;;;;1.67;1.57;;;26.30;34.70;;;;;;4863639;29;20461;-78
2022/06/24 10:43:34;;;;;;;8.13;1.50;;;26.50;34.20;;;;;;4866293;29;20436;-77
2022/06/24 10:46:17;;;;;;;7.27;1.70;;;26.70;34.30;;;;;;4868360;29;20438;-76
2022/06/24 10:49:02;;;;;;;1.87;1.57;;;26.80;33.30;;;;;;4877906;29;20419;-77
2022/06/24 10:51:32;;;;;;;1.60;1.50;;;26.70;34.30;;;;;;4872354;29;20547;-76
2022/06/24 10:54:15;;;;;;;1.93;1.50;;;26.50;34.20;;;;;;4881471;29;20493;-77
2022/06/24 10:56:45;;;;;;;2.70;1.80;;;26.40;35.00;;;;;;4883503;29;20541;-76
2022/06/24 10:59:13;;;;;;;3.10;1.80;;;26.40;35.10;;;;;;4883963;29;20484;-78
2022/06/24 11:01:42;;;;;;;2.33;1.80;;;26.60;36.10;;;;;;4883743;29;20475;-76
2022/06/24 11:04:12;;;;;;;2.37;1.33;;;26.60;34.20;;;;;;4884837;29;20438;-76
2022/06/24 11:06:39;;;;;;;1.70;1.47;;;26.70;34.30;;;;;;4884945;29;20411;-77
2022/06/24 11:09:07;;;;;;;4.40;1.73;;;26.90;34.50;;;;;;4885111;29;20458;-78
2022/06/24 11:11:36;;;;;;;2.23;1.40;;;27.30;34.00;;;;;;4883840;29;20486;-78
2022/06/24 11:14:24;;;;;;;3.93;1.73;;;27.60;32.80;;;;;;4883107;29;20451;-77
2022/06/24 11:16:52;;;;;;;1.77;1.47;;;27.90;32.00;;;;;;4873121;29;20465;-77
2022/06/24 11:19:19;;;;;;;2.13;1.50;;;28.10;30.10;;;;;;4865106;29;20855;-76
2022/06/24 11:21:48;;;;;;;1.33;1.23;;;27.90;30.00;;;;;;4871256;29;20480;-77
2022/06/24 11:24:18;;;;;;;1.93;1.73;;;27.90;30.00;;;;;;4864175;29;20479;-80
2022/06/24 11:27:05;;;;;;;1.53;1.43;;;27.80;30.50;;;;;;4864333;29;20497;-77
2022/06/24 11:29:50;;;;;;;2.53;1.43;;;27.80;30.40;;;;;;4863003;29;20424;-78
2022/06/24 11:32:17;;;;;;;2.23;1.50;;;27.90;30.00;;;;;;4861470;29;20445;-76
2022/06/24 11:34:45;;;;;;;4.60;1.27;;;28.10;29.30;;;;;;4861132;29;20435;-75
2022/06/24 11:37:12;;;;;;;4.80;1.50;;;28.10;29.30;;;;;;4860704;29;20465;-75
2022/06/24 11:39:39;;;;;;;1.90;1.40;;;27.90;30.00;;;;;;4863399;29;20564;-75
2022/06/24 11:42:07;;;;;;;2.40;1.47;;;28.00;29.50;;;;;;4860348;29;20858;-75
2022/06/24 11:44:35;;;;;;;4.50;1.50;;;28.00;29.10;;;;;;4861956;29;20444;-75
2022/06/24 11:47:03;;;;;;;2.10;1.30;;;28.20;28.50;;;;;;4863673;29;20468;-75
2022/06/24 11:49:32;;;;;;;3.20;1.23;;;28.40;28.00;;;;;;4863504;29;20454;-75
2022/06/24 11:52:00;;;;;;;3.60;1.20;;;28.50;27.90;;;;;;4862033;29;20479;-75
2022/06/24 11:54:28;;;;;;;4.20;1.10;;;28.70;27.60;;;;;;4861995;29;20534;-74
2022/06/24 11:56:55;;;;;;;2.77;1.33;;;28.30;28.50;;;;;;4862654;29;20943;-75
2022/06/24 11:59:26;;;;;;;2.57;1.37;;;28.20;29.30;;;;;;4862290;29;20465;-75
2022/06/24 12:01:54;;;;;;;1.20;1.10;;;28.30;28.50;;;;;;4860387;29;20498;-75
2022/06/24 12:04:23;;;;;;;2.30;1.33;;;28.50;28.50;;;;;;4861687;29;20459;-75
2022/06/24 12:06:51;;;;;;;1.13;1.10;;;28.60;28.60;;;;;;4861256;29;20469;-73
2022/06/24 12:09:18;;;;;;;1.40;1.30;;;29.00;28.20;;;;;;4861156;29;20435;-77
2022/06/24 12:11:46;;;;;;;3.20;1.60;;;28.90;27.80;;;;;;4860770;29;20450;-75
2022/06/24 12:14:14;;;;;;;1.60;1.50;;;29.00;27.70;;;;;;4865997;29;20473;-75
2022/06/24 12:16:59;;;;;;;1.80;1.53;;;29.20;27.50;;;;;;4867173;29;20471;-76
2022/06/24 12:19:27;;;;;;;2.90;1.57;;;29.40;26.70;;;;;;4861264;29;20501;-76
2022/06/24 12:22:04;;;;;;;1.73;1.40;;;29.20;27.10;;;;;;4859767;29;20488;-75
2022/06/24 12:24:31;;;;;;;3.03;1.30;;;28.90;26.90;;;;;;4860817;29;20462;-75
2022/06/24 12:27:00;;;;;;;1.10;1.00;;;29.10;26.50;;;;;;4878521;29;20472;-75
2022/06/24 12:29:30;;;;;;;1.43;1.33;;;28.90;28.00;;;;;;4871649;29;20459;-76
2022/06/24 12:31:58;;;;;;;1.40;1.40;;;29.20;27.30;;;;;;4862889;29;20475;-75
2022/06/24 12:34:26;;;;;;;1.70;1.50;;;29.30;26.80;;;;;;4863683;29;20463;-75
2022/06/24 12:36:58;;;;;;;1.43;1.33;;;29.50;26.80;;;;;;4876845;29;20529;-75
2022/06/24 12:39:30;;;;;;;3.73;1.83;;;29.60;26.80;;;;;;4882466;29;20495;-76
2022/06/24 12:41:57;;;;;;;2.17;1.60;;;29.80;26.90;;;;;;4883245;29;20464;-76
2022/06/24 12:44:24;;;;;;;1.10;1.10;;;29.60;26.80;;;;;;4881480;29;20454;-75
2022/06/24 12:52:35;;;;;;;1.93;1.73;;;29.20;26.60;;;;;;4881213;29;20840;-75
2022/06/24 12:55:02;;;;;;;1.50;1.40;;;29.00;26.90;;;;;;4882248;29;20467;-75
2022/06/24 12:57:29;;;;;;;3.00;1.93;;;28.90;26.80;;;;;;4882352;29;20466;-75
2022/06/24 12:59:56;;;;;;;4.67;1.60;;;28.50;28.40;;;;;;4882870;29;20839;-76
2022/06/24 13:02:23;;;;;;;2.33;1.30;;;28.70;28.50;;;;;;4883795;29;20472;-74
2022/06/24 13:04:52;;;;;;;1.17;1.10;;;28.70;27.10;;;;;;4880727;29;20518;-75
2022/06/24 13:07:19;;;;;;;1.40;1.00;;;28.40;28.10;;;;;;4865829;29;20469;-76
2022/06/24 13:09:45;;;;;;;1.30;1.20;;;28.50;27.60;;;;;;4865093;29;20458;-75
2022/06/24 13:12:14;;;;;;;1.57;1.23;;;28.40;28.10;;;;;;4865097;29;20564;-75